الصفحة الرئيسية
METAR-TAF:

METAR-TAF

مطار :

قاعدة بيروت الجوية

بيروت, لبنان

دائرة عرض: 33-49N, خط طول: 035-29E, ارتفاع: 29 متر

مراقبة الطقس الحالي

تاريخ ووقت الإصدار 34 دقيقة قبل الساعة 08:00UTC
ريح 2 عقدة من الغرب/الشمال الغربي
درجة الحرارة 30°درجة مئوية
الرطوبة 49%
ضغط 1015 hPa
الرؤية: 6000 متر
غيوم مفككة على ارتفاع 8000 قدم

METAR: OLBA 220800Z 30002KT 6000 BKN080 30/18 Q1015 NOSIG

زمن: 11:34 (08:34 UTC)

توقعات

تاريخ ووقت الإصدار 4ساعات و 34 دقيقة قبل الساعة 04:00UTC
التوقعات صالحة من22 الساعة 06 UTC إلى 23 الساعة 12 UTC
ريح 15 عقدة من الشمال/الشمال الشرقي
الرؤية: 7000 متر
غيوم مفككة على ارتفاع 8000 قدم
مؤقت
من 22 الساعة 06 UTC إلى 22 الساعة 12 UTC
ريح 15 عقدة من الشمال الشرقي تتزايد حتى 25 عقدة
الرؤية: 5000 متر
غبار
أصبح
من 22 الساعة 20 UTC إلى 22 الساعة 22 UTC
ريح 5 عقدة من الجنوب الشرقي
الرؤية: 8000 متر
أصبح
من 23 الساعة 06 UTC إلى 23 الساعة 08 UTC
ريح 15 عقدة من الغرب
الرؤية 10 كم أو أكثر
غيوم قليلة على ارتفاع 3000 قدم

TAF: OLBA 220400Z 2206/2312 03015KT 7000 BKN080 TEMPO 2206/2212 05015G25KT 5000 DU BECMG 2220/2222 13005KT 8000 NSC BECMG 2306/2308 28015KT 9999 FEW030

أرصاد الطقس والتوقعات من أكثر من 4000 مطار (تقارير الطقس للمطار METAR والتنبؤ بالطقس بالمطارTAF).

المحطات المتاحة هي النقط الصفراء والحمراء على الخريطة.

حرك المؤشر فوق النقطة لمعرفة اسم المحطة.

ثم انقر لمعرفة أرصاد وتوقعات الطقس.

لتغيير الخارطة: اضغط على الأزرار الخضراء مع رمز الصليب الأسود للتكبير. على الزر الأخضر مع شرطة للتصغير، أو على الأسهم الخضراء للخرائط المجاورة.


METAR-TAF: